Pensacola Regional Airport
KPNS : now visible

Airfield :











YOU CAN JOIN US ON...

 
LOGIN :

Register | Disclaimer

   EN    FR    IT 

 









Legend :    VFR   Marginal VFR   IFR   Intensive IFR   Very Intensive IFR
Visi :
Ceiling :
>= 8 km
>= 3000ft
5 to 8 km
1000 to 3000 ft
1500m to 5 km
500 to 1000 ft
800 to 1500m
200 to 500 ft
< 800m
< 200 ft
Symbols :   Thunderstorms  Fog  Heavy snow  Heavy precipitations  Wind > 20 kt






- Airport Elevation : 121 ft
- IATA code : PNS


KPNS - Pensacola Regional

CURRENT METAR :
  • 180753Z 35005KT 8SM SCT120 17/17 A2988 RMK AO2 RAE11B27E38 SLP119 P0000 T01720167

EXPIRED METARs :
  • 180710Z 32006KT 8SM -RA FEW007 SCT040 BKN100 17/17 A2990 RMK AO2 P0000 T01720167
  • 180653Z 32006KT 7SM -RA FEW060 BKN100 OVC120 17/17 A2991 RMK AO2 SLP129 P0004 T01720167
  • 180630Z 30004KT 6SM -RA BR SCT003 BKN090 OVC110 17/17 A2991 RMK AO2 P0003 T01720172
  • 180553Z 27006KT 5SM -RA BR BKN003 OVC080 17/17 A2994 RMK AO2 SLP141 P0004 60026 T01720172 10178 20172 401830161 53002

TAF KPNS
Valid from the 18 at 06:00 until the 19 at 06:00 UTC


180520Z 1806/1906 34005KT 5SM -RA BR BKN002 OVC120
TEMPO 1806/1810 4SM SHRA OVC015
FM181000 34005KT 2SM BR OVC050
FM181300 35005KT 6SM BR OVC035
FM181800 34008KT P6SM SCT050 OVC250
FM190300 32007KT P6SM OVC250
KZJX FIR / North America



MET'MAP, your aeronautical weather chart ! - Copyright ORBIFLY December 2007 - Disclaimer

ORBIFLY MET'MAP TEAM :

Programming & Development : Alexandra Zaïnal
Concept & original design : Baudouin d'Aumeries
Assistance for programming : Marc-Olivier Méhu
Technical & hardware support : Manuel Goepfert

Contact : metmap@orbifly.com




SOURCES & CREDITS :

   NOAA       Earth
Advisory